< < Back
Terminal Aerodrome Forecast


Current Version              Previous Versions:   1  2  3  4  5  6  7  8  9  

Terminal Aerodrome Forecast

354
FTUS42 KFFC 030313 AAA
TAFMCN
TAF AMD
KMCN 030313Z 0303/0324 00000KT P6SM FEW100 SCT200
      TEMPO 0308/0312 5SM BR
     FM031400 34003KT P6SM SCT045 BKN200
     FM031700 33004KT P6SM BKN050 PROB30 0320/0324 -SHRA=

Latest METAR

230
SAUS80 KWBC 030900 RRB
MTRMCN
METAR KMCN 030853Z AUTO 00000KT 7SM CLR 22/22 A2997 RMK AO2 SLP144
T02220217 55005 TSNO


USA.gov is the U.S. government's official web portal to all federal, state and local government web resources and services.